Time;durP1;ratioP1;P1;durP2;ratioP2;P2;SDS_P1;SDS_P2;PMS_P1;PMS_P2;Temp;Humidity;BMP_temperature;BMP_pressure;BME280_temperature;BME280_humidity;BME280_pressure;Samples;Min_cycle;Max_cycle;Signal;HPM_P1;HPM_P2
2020/12/29 00:01:36;;;;;;;35.10;16.87;;;;;;;9.33;88.26;99817.57;127760;1092;104439;-74
2020/12/29 00:04:07;;;;;;;31.90;15.90;;;;;;;9.36;88.41;99819.38;127818;1091;104417;-72
2020/12/29 00:06:42;;;;;;;33.17;15.07;;;;;;;9.40;88.91;99822.98;127836;1091;104509;-72
2020/12/29 00:09:12;;;;;;;34.50;15.77;;;;;;;9.39;88.14;99822.08;127831;1091;104398;-74
2020/12/29 00:11:42;;;;;;;33.50;15.23;;;;;;;9.42;88.11;99819.55;127837;1092;104596;-72
2020/12/29 00:14:12;;;;;;;32.20;17.33;;;;;;;9.40;88.47;99817.75;127826;1091;104525;-73
2020/12/29 00:16:42;;;;;;;32.90;15.63;;;;;;;9.42;88.16;99823.91;127636;1091;104458;-72
2020/12/29 00:19:12;;;;;;;32.87;16.97;;;;;;;9.42;88.30;99826.53;127663;1091;104487;-74
2020/12/29 00:21:41;;;;;;;30.47;15.80;;;;;;;9.43;88.19;99828.32;127659;1091;104432;-74
2020/12/29 00:24:11;;;;;;;36.43;15.70;;;;;;;9.41;88.63;99816.89;127686;1092;104401;-72
2020/12/29 00:26:40;;;;;;;35.20;16.27;;;;;;;9.38;88.21;99820.33;127793;1091;104407;-72
2020/12/29 00:29:09;;;;;;;34.90;15.85;;;;;;;9.39;88.74;99815.97;127805;1091;104596;-73
2020/12/29 00:31:38;;;;;;;33.17;15.37;;;;;;;9.41;88.76;99819.51;127816;1091;104429;-74
2020/12/29 00:34:07;;;;;;;33.40;16.17;;;;;;;9.43;88.44;99817.84;127749;1091;104490;-72
2020/12/29 00:36:36;;;;;;;36.50;18.00;;;;;;;9.39;88.25;99823.82;127796;1091;104411;-75
2020/12/29 00:39:05;;;;;;;34.47;16.23;;;;;;;9.38;88.06;99822.03;127795;1092;104564;-72
2020/12/29 00:41:34;;;;;;;32.67;16.20;;;;;;;9.35;88.14;99813.26;127856;1091;104468;-73
2020/12/29 00:44:03;;;;;;;39.80;16.53;;;;;;;9.35;88.67;99813.26;127825;1092;104410;-73
2020/12/29 00:46:32;;;;;;;33.50;14.83;;;;;;;9.37;88.72;99809.80;127801;1091;104429;-73
2020/12/29 00:49:01;;;;;;;31.80;16.33;;;;;;;9.37;88.18;99809.80;127830;1092;104516;-73
2020/12/29 00:51:30;;;;;;;34.23;15.60;;;;;;;9.38;88.50;99803.70;127798;1092;104545;-73
2020/12/29 00:54:02;;;;;;;37.17;17.50;;;;;;;9.34;88.22;99798.38;127847;1092;104397;-73
2020/12/29 00:56:33;;;;;;;31.60;15.80;;;;;;;9.33;88.13;99795.72;127804;1091;104398;-73
2020/12/29 00:59:03;;;;;;;30.93;16.17;;;;;;;9.31;88.61;99785.20;127838;1091;104404;-73
2020/12/29 01:01:33;;;;;;;29.33;15.80;;;;;;;9.31;88.43;99787.81;127837;1092;104680;-73
2020/12/29 01:04:21;;;;;;;36.97;16.03;;;;;;;9.33;88.63;99790.48;127790;1091;104407;-73
2020/12/29 01:06:50;;;;;;;35.33;16.87;;;;;;;9.33;88.15;99782.63;127827;1091;104510;-73
2020/12/29 01:09:22;;;;;;;33.67;14.77;;;;;;;9.34;88.12;99777.44;127832;1091;104426;-72
2020/12/29 01:11:52;;;;;;;36.97;17.43;;;;;;;9.35;88.48;99781.84;127849;1092;105009;-72
2020/12/29 01:14:22;;;;;;;29.57;13.33;;;;;;;9.35;88.66;99771.36;127831;1091;104413;-73
2020/12/29 01:16:59;;;;;;;31.20;16.37;;;;;;;9.32;88.07;99768.66;127797;1092;104538;-72
2020/12/29 01:19:28;;;;;;;32.33;16.43;;;;;;;9.30;88.46;99765.12;127810;1092;104423;-72
2020/12/29 01:21:57;;;;;;;35.30;17.83;;;;;;;9.29;88.23;99763.33;127821;1091;104398;-72
2020/12/29 01:24:26;;;;;;;35.93;17.03;;;;;;;9.26;88.37;99758.00;127809;1092;104467;-72
2020/12/29 01:26:57;;;;;;;30.90;14.77;;;;;;;9.26;88.15;99758.00;127843;1091;104718;-72
2020/12/29 01:29:26;;;;;;;38.37;17.70;;;;;;;9.24;88.13;99748.32;127791;1091;104535;-73
2020/12/29 01:31:55;;;;;;;34.90;16.90;;;;;;;9.23;88.55;99731.73;127840;1092;104397;-72
2020/12/29 01:34:24;;;;;;;35.67;18.10;;;;;;;9.21;88.17;99733.44;127846;1091;104398;-72
2020/12/29 01:36:54;;;;;;;39.57;18.67;;;;;;;9.21;88.83;99719.44;127804;1091;104400;-74
2020/12/29 01:39:22;;;;;;;38.63;16.30;;;;;;;9.22;88.78;99719.48;127840;1092;104858;-74
2020/12/29 01:41:51;;;;;;;32.00;15.93;;;;;;;9.25;88.20;99721.31;127782;1092;104480;-74
2020/12/29 01:44:21;;;;;;;36.30;17.33;;;;;;;9.24;88.19;99715.20;127797;1092;104529;-73
2020/12/29 01:46:52;;;;;;;38.43;18.97;;;;;;;9.22;88.33;99714.25;127831;1091;104401;-73
2020/12/29 01:49:21;;;;;;;36.53;16.97;;;;;;;9.22;88.17;99722.10;127860;1093;104414;-73
2020/12/29 01:51:50;;;;;;;34.77;17.30;;;;;;;9.21;88.10;99711.59;127809;1091;104410;-73
2020/12/29 01:54:19;;;;;;;36.73;17.40;;;;;;;9.22;88.80;99711.63;127809;1091;104557;-75
2020/12/29 01:56:48;;;;;;;33.47;17.10;;;;;;;9.22;88.29;99709.01;127820;1091;104474;-73
2020/12/29 01:59:17;;;;;;;34.27;16.53;;;;;;;9.26;88.91;99702.16;127816;1091;104407;-72
2020/12/29 02:01:46;;;;;;;35.57;17.13;;;;;;;9.25;88.88;99701.25;127845;1093;104443;-72
2020/12/29 02:04:16;;;;;;;37.83;17.53;;;;;;;9.28;88.24;99697.84;127865;1092;105023;-72
2020/12/29 02:06:45;;;;;;;32.33;14.80;;;;;;;9.28;88.60;99703.95;127804;1091;104423;-71
2020/12/29 02:09:15;;;;;;;36.27;17.23;;;;;;;9.27;88.71;99690.81;127831;1091;104395;-71
2020/12/29 02:11:44;;;;;;;33.33;16.87;;;;;;;9.23;88.80;99670.66;127805;1091;104400;-71
2020/12/29 02:14:16;;;;;;;36.50;16.27;;;;;;;9.23;88.26;99673.27;127834;1091;104856;-72
2020/12/29 02:16:45;;;;;;;33.70;16.25;;;;;;;9.21;88.48;99674.94;127830;1093;104529;-71
2020/12/29 02:19:14;;;;;;;38.07;16.77;;;;;;;9.18;88.04;99670.52;127800;1092;104455;-72
2020/12/29 02:21:46;;;;;;;33.07;16.20;;;;;;;9.16;88.20;99662.62;127850;1091;104420;-71
2020/12/29 02:24:15;;;;;;;33.33;16.03;;;;;;;9.18;88.78;99662.67;127810;1091;104411;-73
2020/12/29 02:26:44;;;;;;;32.87;16.50;;;;;;;9.17;88.38;99650.42;127864;1091;104846;-72
2020/12/29 02:29:13;;;;;;;32.17;14.97;;;;;;;9.17;88.14;99645.19;127832;1091;104490;-74
2020/12/29 02:31:42;;;;;;;34.20;17.80;;;;;;;9.14;88.23;99653.83;127801;1091;104538;-73
2020/12/29 02:34:11;;;;;;;30.75;14.45;;;;;;;9.14;88.08;99664.30;127832;1091;104451;-73
2020/12/29 02:36:40;;;;;;;30.93;14.17;;;;;;;9.16;88.83;99656.48;127831;1091;104480;-72
2020/12/29 02:39:09;;;;;;;30.80;15.20;;;;;;;9.15;88.76;99659.97;127842;1092;104429;-71
2020/12/29 02:41:38;;;;;;;27.93;14.37;;;;;;;9.13;88.33;99645.93;127828;1093;104548;-72
2020/12/29 02:44:06;;;;;;;30.20;14.50;;;;;;;9.12;88.13;99650.29;127765;1091;104446;-71
2020/12/29 02:46:35;;;;;;;31.30;14.80;;;;;;;9.13;88.68;99659.02;127833;1092;104404;-71
2020/12/29 02:49:04;;;;;;;26.97;12.70;;;;;;;9.15;88.46;99657.35;127809;1092;104416;-71
2020/12/29 02:51:33;;;;;;;30.60;15.47;;;;;;;9.15;88.78;99659.97;127825;1091;104426;-73
2020/12/29 02:54:02;;;;;;;28.90;13.60;;;;;;;9.14;88.16;99658.19;127808;1091;104432;-72
2020/12/29 02:56:31;;;;;;;26.37;13.67;;;;;;;9.15;88.87;99657.35;127792;1091;104401;-74
2020/12/29 02:59:00;;;;;;;28.87;13.93;;;;;;;9.17;88.38;99653.03;127818;1091;104426;-72
2020/12/29 03:01:29;;;;;;;28.67;13.80;;;;;;;9.17;88.88;99659.15;127822;1091;104400;-72
2020/12/29 03:03:58;;;;;;;29.50;13.70;;;;;;;9.20;88.83;99647.01;127839;1093;104471;-72
2020/12/29 03:06:27;;;;;;;28.27;13.03;;;;;;;9.18;88.34;99654.82;127831;1091;104531;-72
2020/12/29 03:08:56;;;;;;;25.00;11.80;;;;;;;9.18;88.44;99660.93;127797;1091;104650;-72
2020/12/29 03:11:27;;;;;;;25.67;12.47;;;;;;;9.17;88.12;99663.50;127820;1092;104413;-72
2020/12/29 03:13:58;;;;;;;28.07;12.43;;;;;;;9.17;88.22;99655.66;127822;1091;104425;-72
2020/12/29 03:16:27;;;;;;;28.97;12.73;;;;;;;9.18;88.22;99650.46;127834;1092;104426;-71
2020/12/29 03:18:56;;;;;;;24.43;11.33;;;;;;;9.20;88.68;99650.50;127834;1091;104560;-71
2020/12/29 03:21:26;;;;;;;24.45;11.55;;;;;;;9.24;88.87;99656.70;127756;1091;104448;-71
2020/12/29 03:23:55;;;;;;;24.63;11.60;;;;;;;9.24;88.52;99657.61;127827;1091;105038;-72
2020/12/29 03:26:25;;;;;;;26.43;11.73;;;;;;;9.26;88.06;99655.03;127814;1091;104438;-72
2020/12/29 03:28:55;;;;;;;22.93;11.47;;;;;;;9.28;88.61;99648.09;127826;1091;104528;-71
2020/12/29 03:31:24;;;;;;;24.33;11.57;;;;;;;9.28;88.47;99655.95;127798;1091;104478;-71
2020/12/29 03:33:53;;;;;;;24.87;11.73;;;;;;;9.25;88.52;99648.02;127749;1092;104407;-72
2020/12/29 03:36:22;;;;;;;25.23;10.70;;;;;;;9.24;88.00;99641.90;127822;1091;104398;-71
2020/12/29 03:38:51;;;;;;;26.60;11.03;;;;;;;9.24;88.49;99635.76;127822;1092;104416;-71
2020/12/29 03:41:20;;;;;;;25.10;11.77;;;;;;;9.22;88.12;99635.72;127836;1091;104475;-72
2020/12/29 03:43:49;;;;;;;22.80;11.17;;;;;;;9.19;87.84;99635.63;127838;1092;104453;-73
2020/12/29 03:46:18;;;;;;;27.13;12.37;;;;;;;9.19;88.03;99640.86;127765;1091;104468;-73
2020/12/29 03:48:47;;;;;;;26.10;11.67;;;;;;;9.17;87.94;99640.83;127778;1092;104422;-73
2020/12/29 03:51:16;;;;;;;20.87;9.23;;;;;;;9.21;88.00;99643.52;127799;1091;104436;-73
2020/12/29 03:53:45;;;;;;;27.13;12.00;;;;;;;9.21;88.64;99654.00;127847;1092;104526;-73
2020/12/29 03:56:14;;;;;;;23.83;10.73;;;;;;;9.20;88.59;99644.39;127817;1092;104490;-72
2020/12/29 03:58:43;;;;;;;26.20;11.10;;;;;;;9.16;88.41;99640.78;127793;1091;104448;-72
2020/12/29 04:01:12;;;;;;;23.90;11.50;;;;;;;9.11;87.78;99632.80;127805;1091;104417;-72
2020/12/29 04:03:44;;;;;;;27.53;11.80;;;;;;;9.08;88.03;99627.48;127800;1091;104468;-72
2020/12/29 04:06:13;;;;;;;23.97;11.57;;;;;;;9.06;88.09;99631.80;127836;1091;104528;-71
2020/12/29 04:08:42;;;;;;;25.73;11.60;;;;;;;9.04;88.49;99640.44;127770;1092;104429;-73
2020/12/29 04:11:12;;;;;;;23.13;10.80;;;;;;;9.02;88.58;99640.39;127504;1092;104410;-73
2020/12/29 04:13:42;;;;;;;23.90;10.30;;;;;;;9.03;87.96;99654.39;127624;1091;104430;-74
2020/12/29 04:16:11;;;;;;;24.83;10.83;;;;;;;9.05;88.08;99661.42;127810;1092;104404;-74
2020/12/29 04:18:41;;;;;;;20.23;9.20;;;;;;;9.08;88.19;99655.39;127792;1091;105390;-74
2020/12/29 04:21:12;;;;;;;23.47;10.00;;;;;;;9.08;88.09;99652.78;127772;1092;104441;-73
2020/12/29 04:23:41;;;;;;;22.30;9.90;;;;;;;9.08;87.94;99658.89;127761;1091;104526;-74
2020/12/29 04:26:13;;;;;;;28.10;10.30;;;;;;;9.05;87.98;99664.03;127769;1091;104849;-73
2020/12/29 04:28:42;;;;;;;22.63;9.43;;;;;;;9.03;88.48;99659.63;127693;1092;104439;-74
2020/12/29 04:31:13;;;;;;;22.80;9.50;;;;;;;9.00;88.40;99653.44;127683;1092;104404;-75
2020/12/29 04:33:42;;;;;;;24.13;8.50;;;;;;;8.98;88.39;99649.90;127815;1091;104411;-74
2020/12/29 04:36:11;;;;;;;21.10;8.50;;;;;;;8.96;88.37;99651.59;127787;1091;104401;-74
2020/12/29 04:38:40;;;;;;;21.03;8.43;;;;;;;8.94;88.28;99655.00;127809;1092;104455;-74
2020/12/29 04:41:10;;;;;;;17.90;8.07;;;;;;;8.90;87.82;99642.70;127769;1092;104532;-74
2020/12/29 04:43:39;;;;;;;22.27;8.80;;;;;;;8.87;88.12;99645.22;127819;1091;104429;-74
2020/12/29 04:46:08;;;;;;;20.23;8.23;;;;;;;8.84;88.32;99637.28;127769;1091;104663;-74
2020/12/29 04:48:38;;;;;;;20.30;8.80;;;;;;;8.84;87.86;99630.31;127783;1091;104472;-74
2020/12/29 04:51:08;;;;;;;20.07;8.50;;;;;;;8.83;88.36;99622.42;127809;1091;104421;-74
2020/12/29 04:53:38;;;;;;;17.47;6.97;;;;;;;8.85;87.94;99611.17;127799;1091;104535;-75
2020/12/29 04:56:09;;;;;;;21.80;8.10;;;;;;;8.86;88.32;99620.77;127800;1091;104443;-74
2020/12/29 04:58:38;;;;;;;19.43;8.10;;;;;;;8.85;88.51;99626.86;127762;1092;104529;-75
2020/12/29 05:01:10;;;;;;;21.80;7.57;;;;;;;8.86;88.49;99638.20;127686;1092;104595;-76
2020/12/29 05:03:44;;;;;;;19.87;7.80;;;;;;;8.85;88.51;99628.57;127785;1092;104612;-75
2020/12/29 05:06:14;;;;;;;21.50;7.70;;;;;;;8.83;88.26;99625.91;127777;1092;104398;-74
2020/12/29 05:08:48;;;;;;;16.37;7.13;;;;;;;8.81;88.38;99638.07;127818;1092;104589;-75
2020/12/29 05:11:18;;;;;;;15.80;7.00;;;;;;;8.79;87.67;99631.92;127775;1091;104535;-75
2020/12/29 05:13:48;;;;;;;19.25;7.05;;;;;;;8.78;87.81;99644.09;127738;1091;104410;-73
2020/12/29 05:16:18;;;;;;;16.77;6.97;;;;;;;8.80;88.57;99651.98;127726;1092;104446;-74
2020/12/29 05:18:47;;;;;;;17.27;6.60;;;;;;;8.84;88.53;99648.63;127821;1091;104416;-74
2020/12/29 05:21:16;;;;;;;15.83;6.17;;;;;;;8.91;88.02;99655.82;127827;1091;104468;-74
2020/12/29 05:23:45;;;;;;;16.93;6.63;;;;;;;8.93;88.48;99648.89;127757;1092;104401;-74
2020/12/29 05:26:14;;;;;;;16.77;6.97;;;;;;;8.96;87.80;99650.69;127592;1091;104522;-75
2020/12/29 05:28:47;;;;;;;20.07;7.10;;;;;;;8.98;88.26;99662.98;127721;1091;104414;-75
2020/12/29 05:31:17;;;;;;;17.33;6.27;;;;;;;9.02;88.51;99660.45;127832;1092;104462;-74
2020/12/29 05:33:48;;;;;;;20.77;7.43;;;;;;;9.05;88.33;99661.42;127785;1092;104472;-75
2020/12/29 05:36:18;;;;;;;19.53;7.67;;;;;;;9.07;87.80;99650.99;127510;1091;104420;-76
2020/12/29 05:38:47;;;;;;;20.30;7.80;;;;;;;9.05;87.92;99653.56;127619;1092;104660;-74
2020/12/29 05:41:22;;;;;;;20.13;7.50;;;;;;;8.99;88.22;99641.22;127638;1091;104526;-76
2020/12/29 05:44:03;;;;;;;21.27;7.20;;;;;;;8.97;88.25;99637.65;127614;1092;104512;-74
2020/12/29 05:46:33;;;;;;;19.50;6.37;;;;;;;8.95;87.74;99641.09;127468;1091;104548;-75
2020/12/29 05:49:03;;;;;;;16.93;6.83;;;;;;;8.93;87.62;99646.27;127568;1091;104410;-77
2020/12/29 05:51:34;;;;;;;14.07;6.27;;;;;;;8.91;88.07;99644.45;127524;1092;104420;-74
2020/12/29 05:54:04;;;;;;;18.85;6.25;;;;;;;8.88;88.15;99646.97;127559;1091;104500;-77
2020/12/29 05:56:35;;;;;;;21.53;7.43;;;;;;;8.85;88.06;99639.95;127520;1091;104433;-73
2020/12/29 05:59:05;;;;;;;15.03;6.17;;;;;;;8.83;87.46;99638.11;127636;1092;104436;-75
2020/12/29 06:01:39;;;;;;;14.57;6.70;;;;;;;8.80;87.92;99644.13;127553;1091;104445;-73
2020/12/29 06:04:07;;;;;;;;;;;;;;;8.78;88.02;99654.55;127702;1092;104429;-74
2020/12/29 06:06:39;;;;;;;19.65;6.50;;;;;;;8.79;87.68;99661.57;127736;1091;104535;-74
2020/12/29 06:09:09;;;;;;;20.13;6.70;;;;;;;8.81;87.67;99672.08;127726;1092;104465;-76
2020/12/29 06:11:42;;;;;;;20.73;7.40;;;;;;;8.84;87.68;99674.78;127756;1091;104407;-76
2020/12/29 06:14:13;;;;;;;21.53;7.10;;;;;;;8.85;88.30;99654.73;127554;1091;104542;-75
2020/12/29 06:16:44;;;;;;;20.77;6.33;;;;;;;8.85;87.64;99666.11;127717;1092;104567;-74
2020/12/29 06:19:26;;;;;;;18.40;6.10;;;;;;;8.88;88.01;99670.52;127751;1091;104407;-74
2020/12/29 06:22:05;;;;;;;20.27;5.80;;;;;;;8.91;88.22;99675.84;127734;1092;104958;-73
2020/12/29 06:24:35;;;;;;;21.30;5.67;;;;;;;8.93;87.58;99679.41;127450;1092;104867;-73
2020/12/29 06:27:06;;;;;;;22.63;6.50;;;;;;;8.96;88.13;99669.91;127288;1092;104436;-75
2020/12/29 06:29:38;;;;;;;17.37;5.37;;;;;;;9.00;88.23;99673.49;127420;1091;105531;-73
2020/12/29 06:32:12;;;;;;;15.27;5.53;;;;;;;9.03;88.04;99665.73;127354;1092;104406;-75
2020/12/29 06:34:47;;;;;;;11.30;4.80;;;;;;;9.08;87.83;99665.86;128887;1092;102463;-73
2020/12/29 06:37:23;;;;;;;15.50;5.63;;;;;;;9.10;87.40;99659.84;127894;1092;103344;-73
2020/12/29 06:39:58;;;;;;;15.93;5.50;;;;;;;9.11;87.83;99656.36;127416;1093;104567;-74
2020/12/29 06:42:27;;;;;;;16.23;5.50;;;;;;;9.12;87.43;99665.99;128842;1092;102466;-74
2020/12/29 06:44:58;;;;;;;16.00;5.03;;;;;;;9.11;87.88;99660.72;128254;1092;104488;-75
2020/12/29 06:47:28;;;;;;;16.70;5.90;;;;;;;9.09;87.28;99655.44;127365;1092;104929;-73
2020/12/29 06:49:57;;;;;;;17.60;5.70;;;;;;;9.10;87.50;99651.08;127266;1091;104504;-74
2020/12/29 06:52:35;;;;;;;18.53;5.57;;;;;;;9.08;87.88;99658.89;127378;1092;104740;-75
2020/12/29 06:55:06;;;;;;;14.70;5.03;;;;;;;9.07;87.75;99650.99;127184;1092;104439;-75
2020/12/29 06:57:49;;;;;;;17.43;5.67;;;;;;;9.07;87.97;99662.37;127310;1092;104445;-76
2020/12/29 07:00:20;;;;;;;18.83;5.43;;;;;;;9.06;87.15;99671.05;127284;1092;104577;-75
2020/12/29 07:02:52;;;;;;;18.97;5.53;;;;;;;9.07;87.88;99664.98;127317;1092;104545;-73
2020/12/29 07:05:23;;;;;;;18.00;5.40;;;;;;;9.10;87.54;99653.70;127481;1091;104997;-75
2020/12/29 07:07:59;;;;;;;15.57;5.30;;;;;;;9.12;87.34;99652.03;127498;1091;104538;-74
2020/12/29 07:10:34;;;;;;;14.83;5.40;;;;;;;9.12;87.47;99649.41;127627;1091;104392;-72
2020/12/29 07:13:10;;;;;;;17.00;5.10;;;;;;;9.12;87.91;99645.05;127445;1092;104449;-72
2020/12/29 07:15:50;;;;;;;11.63;4.50;;;;;;;9.13;87.36;99636.37;127487;1092;104391;-74
2020/12/29 07:18:22;;;;;;;17.73;4.80;;;;;;;9.13;87.87;99636.37;127237;1091;104614;-74
2020/12/29 07:20:55;;;;;;;13.90;4.93;;;;;;;9.11;87.97;99642.39;127353;1092;104411;-72
2020/12/29 07:23:28;;;;;;;15.83;4.97;;;;;;;9.08;87.71;99647.55;127350;1092;104493;-73
2020/12/29 07:26:01;;;;;;;16.17;5.33;;;;;;;9.03;87.46;99641.30;127414;1092;104404;-73
2020/12/29 07:28:31;;;;;;;18.13;5.53;;;;;;;9.01;87.25;99638.64;127411;1092;104401;-74
2020/12/29 07:31:00;;;;;;;15.97;5.00;;;;;;;8.99;87.86;99629.84;127462;1092;104547;-73
2020/12/29 07:33:32;;;;;;;18.20;5.30;;;;;;;8.95;87.13;99605.33;127517;1092;104551;-73
2020/12/29 07:36:04;;;;;;;22.47;5.37;;;;;;;8.94;87.42;99614.05;127503;1092;104515;-73
2020/12/29 07:38:36;;;;;;;15.40;5.03;;;;;;;8.92;87.92;99609.59;127368;1092;104552;-73
2020/12/29 07:41:06;;;;;;;13.77;4.83;;;;;;;8.90;87.74;99614.80;127628;1091;104429;-73
2020/12/29 07:43:36;;;;;;;19.43;5.17;;;;;;;8.88;87.62;99611.26;127511;1091;103133;-73
2020/12/29 07:46:05;;;;;;;14.70;4.93;;;;;;;8.86;87.76;99617.27;127496;1092;104493;-72
2020/12/29 07:48:45;;;;;;;15.77;5.60;;;;;;;8.86;88.12;99628.62;127499;1092;104538;-73
2020/12/29 07:51:14;;;;;;;17.87;5.30;;;;;;;8.86;87.48;99614.66;127570;1092;104945;-72
2020/12/29 07:53:43;;;;;;;12.95;4.90;;;;;;;8.84;88.16;99627.70;127558;1092;104397;-73
2020/12/29 07:56:13;;;;;;;16.45;5.00;;;;;;;8.83;88.16;99635.50;127369;1092;104545;-71
2020/12/29 07:58:42;;;;;;;16.50;4.90;;;;;;;8.83;87.86;99636.38;127263;1092;104427;-73
2020/12/29 08:01:11;;;;;;;17.20;5.93;;;;;;;8.85;88.19;99646.88;127421;1092;104624;-75
2020/12/29 08:03:49;;;;;;;18.13;5.83;;;;;;;8.86;88.14;99632.97;127564;1092;104525;-73
2020/12/29 08:06:18;;;;;;;15.13;5.33;;;;;;;8.85;88.15;99626.86;127605;1091;104544;-73
2020/12/29 08:08:47;;;;;;;15.17;4.43;;;;;;;8.87;87.91;99650.45;127647;1091;104580;-72
2020/12/29 08:11:28;;;;;;;15.80;4.63;;;;;;;8.88;87.53;99653.12;127492;1092;104401;-73
2020/12/29 08:14:01;;;;;;;16.10;4.70;;;;;;;8.91;87.47;99652.30;127587;1093;104494;-75
2020/12/29 08:16:34;;;;;;;15.87;4.40;;;;;;;8.97;88.26;99661.20;127456;1091;104531;-73
2020/12/29 08:19:10;;;;;;;15.10;4.53;;;;;;;9.07;88.24;99651.91;127429;1092;104715;-75
2020/12/29 08:21:49;;;;;;;16.73;4.30;;;;;;;9.17;87.66;99651.30;127560;1092;104490;-77
2020/12/29 08:24:22;;;;;;;18.90;5.10;;;;;;;9.29;88.03;99652.50;127525;1091;104654;-73
2020/12/29 08:26:58;;;;;;;16.15;4.75;;;;;;;9.42;87.44;99651.09;127572;1092;104846;-73
2020/12/29 08:29:32;;;;;;;18.93;5.57;;;;;;;9.42;87.85;99649.34;127561;1091;104427;-74
2020/12/29 08:32:07;;;;;;;18.83;4.97;;;;;;;9.43;87.29;99660.73;127597;1092;104551;-74
2020/12/29 08:34:39;;;;;;;13.60;4.47;;;;;;;9.42;87.62;99646.73;127526;1091;104545;-73
2020/12/29 08:37:09;;;;;;;16.63;4.80;;;;;;;9.45;87.44;99646.81;127321;1091;104432;-71
2020/12/29 08:39:48;;;;;;;17.60;5.30;;;;;;;9.46;87.43;99652.95;127394;1091;104516;-72
2020/12/29 08:42:19;;;;;;;21.50;4.57;;;;;;;9.47;87.50;99654.70;127423;1091;104529;-74
2020/12/29 08:44:48;;;;;;;16.90;5.17;;;;;;;9.45;87.19;99651.17;127376;1092;104531;-73
2020/12/29 08:47:17;;;;;;;18.13;4.77;;;;;;;9.46;87.34;99643.36;127527;1091;104477;-74
2020/12/29 08:49:50;;;;;;;15.25;5.08;;;;;;;9.49;87.47;99634.67;127515;1092;104487;-73
2020/12/29 08:52:31;;;;;;;16.27;4.60;;;;;;;9.48;87.13;99619.83;127596;1091;104461;-73
2020/12/29 08:55:03;;;;;;;12.00;4.20;;;;;;;9.45;87.02;99619.75;127578;1091;104420;-76
2020/12/29 08:57:33;;;;;;;13.57;4.40;;;;;;;9.44;87.10;99607.49;127576;1092;104432;-75
2020/12/29 09:00:05;;;;;;;16.37;5.23;;;;;;;9.44;87.32;99597.92;127398;1092;104474;-75
2020/12/29 09:06:03;;;;;;;14.57;4.30;;;;;;;9.56;87.26;99583.36;127179;1091;104548;-75
2020/12/29 09:24:25;;;;;;;10.13;3.80;;;;;;;10.54;87.09;99592.64;127223;1093;104427;-75
2020/12/29 09:30:14;;;;;;;17.77;3.67;;;;;;;10.94;87.22;99611.84;127349;1092;104544;-74
2020/12/29 09:33:03;;;;;;;14.23;3.80;;;;;;;11.12;86.52;99627.92;127551;1092;104488;-73
2020/12/29 09:35:45;;;;;;;16.10;3.60;;;;;;;11.23;86.39;99615.00;127425;1091;104420;-73
2020/12/29 09:38:25;;;;;;;11.80;3.30;;;;;;;11.36;86.81;99623.11;127572;1091;104429;-72
2020/12/29 09:40:55;;;;;;;12.00;3.40;;;;;;;11.44;86.41;99614.52;127624;1091;104475;-74
2020/12/29 09:43:41;;;;;;;11.70;3.10;;;;;;;11.51;86.23;99621.67;127546;1092;104426;-73
2020/12/29 09:46:15;;;;;;;9.43;3.47;;;;;;;11.59;85.04;99618.27;127639;1091;104487;-75
2020/12/29 09:48:47;;;;;;;11.25;3.60;;;;;;;11.63;85.71;99627.98;128317;1092;104464;-74
2020/12/29 09:51:20;;;;;;;12.95;3.02;;;;;;;11.71;86.18;99628.13;127577;1092;104395;-74
2020/12/29 09:53:52;;;;;;;11.33;3.07;;;;;;;11.73;85.53;99622.02;127592;1091;105144;-75
2020/12/29 09:56:22;;;;;;;11.57;3.00;;;;;;;11.76;85.66;99622.06;127593;1092;104419;-77
2020/12/29 09:58:52;;;;;;;10.60;3.40;;;;;;;11.82;85.88;99619.53;127338;1092;104426;-76
2020/12/29 10:01:23;;;;;;;10.77;3.33;;;;;;;11.85;85.98;99614.33;127313;1092;104436;-74
2020/12/29 10:03:56;;;;;;;10.50;3.50;;;;;;;11.91;85.83;99600.41;127543;1092;104428;-76
2020/12/29 10:06:29;;;;;;;8.97;3.10;;;;;;;11.91;85.74;99610.93;127555;1092;105582;-75
2020/12/29 10:08:58;;;;;;;7.37;3.20;;;;;;;11.96;85.72;99617.17;127505;1092;104667;-74
2020/12/29 10:11:34;;;;;;;;;;;;;;;11.99;85.77;99617.22;127555;1092;104466;-74
2020/12/29 10:14:09;;;;;;;13.30;3.30;;;;;;;11.99;85.08;99618.97;127492;1092;104407;-76
2020/12/29 10:16:47;;;;;;;13.10;3.57;;;;;;;11.99;85.49;99634.75;127613;1092;104474;-76
2020/12/29 10:19:22;;;;;;;10.10;3.65;;;;;;;12.02;85.64;99647.95;127413;1092;104555;-74
2020/12/29 10:21:56;;;;;;;12.33;3.20;;;;;;;12.08;85.69;99637.53;127479;1092;104471;-74
2020/12/29 10:24:29;;;;;;;14.43;3.90;;;;;;;12.10;85.16;99637.55;127549;1092;104400;-75
2020/12/29 10:27:07;;;;;;;9.47;3.40;;;;;;;12.12;85.43;99625.30;128431;1092;102778;-76
2020/12/29 10:29:36;;;;;;;13.20;3.70;;;;;;;12.10;84.43;99624.41;127521;1092;104400;-75
2020/12/29 10:32:05;;;;;;;9.50;2.50;;;;;;;12.10;85.37;99627.91;127689;1091;104468;-74
2020/12/29 10:34:35;;;;;;;11.87;3.13;;;;;;;12.12;84.86;99623.55;127519;1091;104605;-74
2020/12/29 10:37:04;;;;;;;14.70;3.40;;;;;;;12.14;84.84;99637.63;127563;1092;104425;-74
2020/12/29 10:39:33;;;;;;;7.63;2.87;;;;;;;12.18;84.92;99634.16;127549;1092;104424;-74
2020/12/29 10:42:12;;;;;;;10.53;3.37;;;;;;;12.19;84.41;99617.53;127398;1091;104429;-73
2020/12/29 10:44:42;;;;;;;10.03;3.23;;;;;;;12.20;84.16;99624.56;127553;1091;104454;-74
2020/12/29 10:47:13;;;;;;;11.60;3.10;;;;;;;12.23;85.08;99624.62;127623;1091;104429;-74
2020/12/29 10:49:42;;;;;;;7.95;2.70;;;;;;;12.29;84.84;99629.06;127597;1091;104407;-74
2020/12/29 10:52:13;;;;;;;9.40;3.50;;;;;;;12.31;84.94;99627.36;127505;1092;104433;-73
2020/12/29 10:54:43;;;;;;;13.07;3.10;;;;;;;12.35;84.89;99644.06;127521;1092;104420;-72
2020/12/29 10:57:16;;;;;;;10.75;2.95;;;;;;;12.38;84.79;99650.25;127549;1092;104413;-76
2020/12/29 10:59:44;;;;;;;7.67;2.57;;;;;;;12.45;84.46;99647.70;127215;1092;104443;-78
2020/12/29 11:02:15;;;;;;;8.83;2.67;;;;;;;12.45;84.80;99650.33;127470;1091;104427;-76
2020/12/29 11:04:44;;;;;;;6.83;2.67;;;;;;;12.47;85.53;99651.27;127421;1092;104462;-77
2020/12/29 11:07:13;;;;;;;6.17;2.70;;;;;;;12.51;85.13;99666.21;126866;1094;104708;-77
2020/12/29 11:09:42;;;;;;;11.27;3.00;;;;;;;12.54;84.58;99664.53;126888;1094;105102;-74
2020/12/29 11:12:17;;;;;;;10.20;2.77;;;;;;;12.55;85.34;99668.03;126812;1094;104422;-74
2020/12/29 11:14:47;;;;;;;7.30;2.80;;;;;;;12.55;84.82;99679.44;126801;1094;104603;-74
2020/12/29 11:17:28;;;;;;;7.80;3.17;;;;;;;12.57;84.66;99683.00;126883;1094;104599;-79
2020/12/29 11:19:58;;;;;;;7.97;2.80;;;;;;;12.58;84.45;99690.01;126815;1092;104610;-77
2020/12/29 11:22:26;;;;;;;10.80;2.93;;;;;;;12.59;84.78;99689.16;126681;1094;104432;-78
2020/12/29 11:24:55;;;;;;;9.50;2.73;;;;;;;12.59;84.67;99689.16;126753;1094;104634;-75
2020/12/29 11:27:24;;;;;;;12.53;3.10;;;;;;;12.60;84.92;99690.03;126737;1093;104567;-77
2020/12/29 11:29:53;;;;;;;8.30;2.80;;;;;;;12.62;84.26;99677.80;126697;1094;104577;-78
2020/12/29 11:32:22;;;;;;;11.67;3.37;;;;;;;12.58;84.20;99694.40;126849;1094;104623;-76
2020/12/29 11:34:51;;;;;;;9.37;2.70;;;;;;;12.53;83.80;99689.06;126988;1094;104532;-74
2020/12/29 11:37:22;;;;;;;9.67;2.70;;;;;;;12.51;84.65;99700.42;126921;1094;104569;-73
2020/12/29 11:40:02;;;;;;;7.57;3.07;;;;;;;12.54;84.73;99710.99;127302;1091;104404;-73
2020/12/29 11:42:31;;;;;;;9.47;2.90;;;;;;;12.54;84.70;99701.38;127314;1092;104455;-73
2020/12/29 11:45:01;;;;;;;13.03;3.00;;;;;;;12.52;84.54;99703.08;127449;1092;104532;-72
2020/12/29 11:47:39;;;;;;;12.43;2.60;;;;;;;12.48;84.80;99696.02;127307;1092;104429;-75
2020/12/29 11:50:13;;;;;;;5.57;2.90;;;;;;;12.43;83.99;99694.16;128703;1092;104548;-78
2020/12/29 11:52:44;;;;;;;9.40;2.87;;;;;;;12.37;84.80;99690.59;127384;1091;104487;-73
2020/12/29 11:55:14;;;;;;;8.60;2.53;;;;;;;12.36;84.41;99701.09;127540;1091;104442;-76